createdAt,value
2022-11-25T00:01:06.245Z,99.40
2022-11-25T00:03:35.198Z,99.70
2022-11-25T00:06:14.082Z,99.60
2022-11-25T00:08:42.535Z,99.60
2022-11-25T00:11:12.506Z,98.60
2022-11-25T00:13:41.998Z,97.80
2022-11-25T00:16:12.120Z,99.50
2022-11-25T00:18:40.670Z,99.70
2022-11-25T00:21:09.941Z,97.60
2022-11-25T00:23:38.605Z,99.80
2022-11-25T00:26:13.533Z,99.50
2022-11-25T00:28:43.098Z,99.70
2022-11-25T00:31:12.972Z,99.90
2022-11-25T00:33:41.805Z,97.90
2022-11-25T00:36:18.034Z,99.30
2022-11-25T00:38:46.237Z,97.30
2022-11-25T00:41:33.238Z,99.90
2022-11-25T00:44:18.705Z,98.20
2022-11-25T00:46:46.547Z,98.70
2022-11-25T00:49:14.399Z,99.10
2022-11-25T00:51:42.244Z,98.70
2022-11-25T00:54:10.099Z,97.90
2022-11-25T00:56:39.283Z,97.00
2022-11-25T00:59:07.253Z,99.90
2022-11-25T01:01:35.267Z,99.90
2022-11-25T01:04:03.560Z,99.90
2022-11-25T01:06:31.454Z,99.70
2022-11-25T01:08:59.297Z,99.90
2022-11-25T01:11:27.245Z,99.90
2022-11-25T01:14:01.128Z,99.90
2022-11-25T01:16:29.914Z,99.90
2022-11-25T01:18:58.815Z,99.90
2022-11-25T01:21:28.278Z,99.80
2022-11-25T01:23:56.411Z,99.90
2022-11-25T01:26:25.732Z,99.90
2022-11-25T01:28:57.530Z,99.90
2022-11-25T01:31:26.732Z,99.70
2022-11-25T01:33:56.331Z,99.00
2022-11-25T01:36:24.373Z,99.30
2022-11-25T01:38:53.990Z,99.90
2022-11-25T01:41:23.326Z,99.20
2022-11-25T01:44:13.846Z,99.90
2022-11-25T01:46:51.353Z,99.90
2022-11-25T01:49:21.135Z,99.90
2022-11-25T01:51:54.826Z,98.90
2022-11-25T01:54:26.803Z,98.30
2022-11-25T01:56:58.026Z,99.90
2022-11-25T01:59:28.196Z,99.90
2022-11-25T02:01:57.088Z,99.40
2022-11-25T02:04:32.796Z,99.90
2022-11-25T02:07:07.187Z,99.90
2022-11-25T02:09:37.193Z,98.20
2022-11-25T02:12:06.707Z,97.30
2022-11-25T02:14:36.658Z,96.60
2022-11-25T02:17:04.753Z,98.70
2022-11-25T02:19:44.053Z,99.60
2022-11-25T02:22:21.687Z,99.90
2022-11-25T02:24:54.201Z,98.50
2022-11-25T02:27:23.421Z,98.10
2022-11-25T02:29:52.721Z,99.90
2022-11-25T02:32:23.071Z,99.90
2022-11-25T02:34:51.415Z,99.90
2022-11-25T02:37:21.581Z,99.40
2022-11-25T02:39:49.738Z,99.00
2022-11-25T02:42:20.897Z,98.60
2022-11-25T02:44:50.796Z,99.00
2022-11-25T02:47:18.765Z,99.90
2022-11-25T02:49:46.643Z,99.90
2022-11-25T02:52:14.680Z,99.90
2022-11-25T02:54:42.534Z,98.10
2022-11-25T02:57:10.403Z,99.90
2022-11-25T02:59:38.240Z,99.90
2022-11-25T03:02:07.497Z,99.90
2022-11-25T03:04:35.658Z,99.90
2022-11-25T03:07:04.024Z,99.90
2022-11-25T03:09:31.869Z,99.90
2022-11-25T03:12:17.362Z,99.00
2022-11-25T03:14:45.276Z,96.60
2022-11-25T03:17:14.977Z,97.30
2022-11-25T03:19:42.822Z,99.00
2022-11-25T03:22:10.651Z,99.90
2022-11-25T03:24:38.687Z,99.90
2022-11-25T03:27:06.711Z,99.90
2022-11-25T03:29:34.560Z,99.90
2022-11-25T03:32:05.478Z,99.90
2022-11-25T03:34:38.622Z,99.50
2022-11-25T03:37:06.726Z,99.50
2022-11-25T03:39:34.787Z,99.60
2022-11-25T03:42:02.603Z,99.10
2022-11-25T03:44:30.437Z,99.80
2022-11-25T03:46:58.268Z,99.70
2022-11-25T03:49:26.288Z,99.60
2022-11-25T03:51:55.518Z,99.90
2022-11-25T03:54:23.387Z,99.80
2022-11-25T03:56:51.280Z,98.50
2022-11-25T03:59:19.140Z,99.40
2022-11-25T04:01:47.033Z,99.70
2022-11-25T04:04:14.980Z,99.60
2022-11-25T04:06:42.822Z,99.80
2022-11-25T04:09:12.962Z,99.60
2022-11-25T04:11:58.251Z,99.50
2022-11-25T04:14:26.190Z,99.60
2022-11-25T04:16:54.390Z,99.80
2022-11-25T04:19:22.275Z,99.80
2022-11-25T04:21:52.444Z,99.90
2022-11-25T04:24:22.074Z,99.90
2022-11-25T04:26:50.122Z,99.90
2022-11-25T04:29:18.004Z,99.90
2022-11-25T04:31:45.864Z,99.60
2022-11-25T04:34:13.787Z,99.40
2022-11-25T04:36:41.715Z,99.10
2022-11-25T04:39:09.561Z,98.70
2022-11-25T04:41:38.763Z,98.40
2022-11-25T04:44:06.629Z,98.30
2022-11-25T04:46:37.987Z,98.30
2022-11-25T04:49:06.206Z,98.20
2022-11-25T04:51:34.086Z,98.10
2022-11-25T04:54:01.934Z,98.10
2022-11-25T04:56:29.846Z,98.10
2022-11-25T04:59:18.913Z,98.10
2022-11-25T05:01:46.860Z,98.00
2022-11-25T05:04:14.746Z,97.90
2022-11-25T05:06:42.575Z,98.10
2022-11-25T05:09:11.102Z,97.20
2022-11-25T05:11:38.959Z,98.00
2022-11-25T05:14:08.136Z,98.50
2022-11-25T05:16:36.222Z,98.40
2022-11-25T05:19:04.093Z,98.40
2022-11-25T05:21:31.941Z,98.50
2022-11-25T05:23:59.778Z,98.60
2022-11-25T05:26:27.658Z,98.80
2022-11-25T05:28:55.507Z,99.00
2022-11-25T05:31:24.722Z,99.00
2022-11-25T05:33:52.593Z,98.90
2022-11-25T05:36:20.489Z,98.70
2022-11-25T05:38:48.333Z,98.50
2022-11-25T05:41:16.192Z,98.40
2022-11-25T05:43:44.138Z,98.20
2022-11-25T05:46:12.131Z,98.30
2022-11-25T05:48:41.383Z,98.10
2022-11-25T05:51:10.016Z,98.10
2022-11-25T05:53:37.947Z,98.10
2022-11-25T05:56:07.909Z,98.30
2022-11-25T05:58:35.798Z,98.20
2022-11-25T06:01:07.744Z,98.30
2022-11-25T06:03:36.176Z,98.40
2022-11-25T06:06:07.342Z,98.40
2022-11-25T06:08:35.863Z,98.50
2022-11-25T06:11:06.451Z,98.60
2022-11-25T06:13:34.400Z,98.70
2022-11-25T06:16:08.402Z,98.60
2022-11-25T06:18:37.455Z,98.50
2022-11-25T06:21:07.658Z,98.50
2022-11-25T06:23:36.128Z,98.40
2022-11-25T06:26:08.478Z,98.30
2022-11-25T06:28:36.308Z,98.40
2022-11-25T06:31:08.640Z,98.10
2022-11-25T06:33:36.677Z,98.20
2022-11-25T06:36:07.982Z,98.10
2022-11-25T06:38:36.558Z,97.00
2022-11-25T06:41:06.034Z,98.60
2022-11-25T06:43:34.108Z,98.50
2022-11-25T06:46:06.459Z,98.30
2022-11-25T06:48:34.723Z,98.10
2022-11-25T06:51:04.231Z,97.80
2022-11-25T06:53:34.709Z,97.60
2022-11-25T06:56:12.179Z,97.60
2022-11-25T06:58:41.120Z,97.60
2022-11-25T07:01:12.670Z,97.70
2022-11-25T07:03:40.666Z,97.60
2022-11-25T07:06:09.002Z,98.20
2022-11-25T07:08:38.241Z,96.40
2022-11-25T07:11:08.092Z,95.40
2022-11-25T07:13:36.020Z,97.10
2022-11-25T07:16:04.444Z,97.40
2022-11-25T07:18:33.049Z,97.40
2022-11-25T07:21:06.936Z,97.30
2022-11-25T07:23:35.609Z,97.30
2022-11-25T07:26:06.208Z,97.30
2022-11-25T07:28:34.185Z,97.40
2022-11-25T07:31:23.398Z,97.40
2022-11-25T07:33:53.601Z,97.40
2022-11-25T07:36:21.887Z,97.50
2022-11-25T07:38:50.162Z,97.50
2022-11-25T07:41:21.416Z,97.40
2022-11-25T07:43:51.209Z,97.20
2022-11-25T07:46:26.514Z,97.10
2022-11-25T07:48:56.636Z,97.20
2022-11-25T07:51:26.334Z,97.20
2022-11-25T07:53:55.264Z,97.20
2022-11-25T07:56:24.908Z,97.30
2022-11-25T07:58:52.944Z,97.60
2022-11-25T08:01:21.227Z,97.80
2022-11-25T08:03:50.618Z,97.70
2022-11-25T08:06:20.954Z,97.60
2022-11-25T08:08:49.105Z,98.00
2022-11-25T08:11:18.832Z,98.10
2022-11-25T08:13:48.456Z,98.20
2022-11-25T08:16:18.618Z,97.40
2022-11-25T08:18:46.632Z,96.70
2022-11-25T08:21:16.187Z,96.60
2022-11-25T08:23:47.518Z,96.60
2022-11-25T08:26:17.784Z,96.90
2022-11-25T08:28:48.027Z,97.00
2022-11-25T08:31:18.119Z,96.90
2022-11-25T08:33:46.579Z,96.70
2022-11-25T08:36:15.387Z,96.60
2022-11-25T08:38:44.177Z,96.70
2022-11-25T08:41:13.686Z,96.80
2022-11-25T08:43:42.336Z,95.80
2022-11-25T08:46:14.870Z,96.20
2022-11-25T08:48:43.507Z,96.70
2022-11-25T08:51:13.148Z,97.30
2022-11-25T08:53:42.292Z,97.20
2022-11-25T08:56:10.690Z,98.00
2022-11-25T08:58:38.873Z,98.40
2022-11-25T09:01:07.195Z,98.40
2022-11-25T09:03:38.182Z,98.20
2022-11-25T09:06:07.018Z,98.10
2022-11-25T09:08:35.647Z,98.20
2022-11-25T09:11:03.675Z,98.50
2022-11-25T09:13:31.684Z,98.20
2022-11-25T09:16:01.200Z,98.10
2022-11-25T09:18:30.391Z,98.20
2022-11-25T09:21:00.635Z,97.60
2022-11-25T09:23:28.470Z,98.50
2022-11-25T09:25:57.777Z,98.50
2022-11-25T09:28:26.874Z,98.50
2022-11-25T09:30:54.967Z,98.60
2022-11-25T09:33:24.233Z,99.00
2022-11-25T09:35:52.110Z,99.00
2022-11-25T09:38:21.312Z,99.00
2022-11-25T09:40:55.259Z,98.90
2022-11-25T09:43:51.451Z,98.70
2022-11-25T09:46:46.005Z,98.60
2022-11-25T09:49:31.784Z,98.70
2022-11-25T09:52:10.110Z,98.70
2022-11-25T09:54:43.662Z,98.80
2022-11-25T09:57:22.918Z,98.80
2022-11-25T10:00:02.803Z,98.80
2022-11-25T10:02:38.623Z,99.00
2022-11-25T10:05:10.901Z,99.00
2022-11-25T10:07:43.949Z,98.80
2022-11-25T10:10:20.499Z,99.10
2022-11-25T10:12:50.192Z,99.30
2022-11-25T10:15:22.313Z,99.20
2022-11-25T10:17:53.296Z,99.80
2022-11-25T10:20:23.397Z,99.40
2022-11-25T10:22:54.014Z,99.10
2022-11-25T10:25:25.310Z,99.50
2022-11-25T10:27:58.332Z,98.70
2022-11-25T10:30:28.104Z,98.60
2022-11-25T10:33:08.199Z,99.50
2022-11-25T10:35:40.966Z,98.50
2022-11-25T10:38:18.969Z,99.80
2022-11-25T10:40:51.479Z,99.90
2022-11-25T10:43:19.780Z,99.20
2022-11-25T10:45:53.597Z,99.90
2022-11-25T10:48:32.554Z,99.90
2022-11-25T10:51:13.961Z,99.50
2022-11-25T10:53:41.867Z,99.90
2022-11-25T10:56:18.389Z,99.90
2022-11-25T10:58:47.062Z,99.90
2022-11-25T11:01:17.690Z,99.90
2022-11-25T11:03:47.506Z,99.70
2022-11-25T11:06:32.878Z,98.90
2022-11-25T11:09:01.035Z,99.70
2022-11-25T11:11:30.575Z,99.40
2022-11-25T11:14:14.648Z,99.30
2022-11-25T11:16:45.320Z,97.90
2022-11-25T11:19:23.038Z,98.90
2022-11-25T11:21:51.996Z,98.40
2022-11-25T11:24:28.077Z,98.70
2022-11-25T11:27:14.493Z,97.90
2022-11-25T11:29:42.392Z,99.00
2022-11-25T11:32:26.419Z,99.10
2022-11-25T11:35:04.110Z,99.40
2022-11-25T11:37:44.578Z,99.20
2022-11-25T11:40:25.331Z,98.90
2022-11-25T11:43:17.939Z,98.20
2022-11-25T11:45:56.252Z,98.90
2022-11-25T11:48:28.527Z,98.60
2022-11-25T11:51:07.513Z,99.00
2022-11-25T11:53:45.810Z,98.50
2022-11-25T11:56:35.217Z,96.40
2022-11-25T11:59:35.612Z,97.20
2022-11-25T12:02:17.626Z,99.30
2022-11-25T12:04:51.757Z,99.90
2022-11-25T12:07:25.020Z,99.90
2022-11-25T12:09:57.302Z,99.90
2022-11-25T12:12:33.944Z,99.80
2022-11-25T12:15:11.048Z,99.00
2022-11-25T12:17:44.980Z,99.40
2022-11-25T12:20:19.629Z,99.50
2022-11-25T12:22:54.763Z,99.40
2022-11-25T12:25:24.962Z,98.70
2022-11-25T12:27:58.813Z,99.40
2022-11-25T12:30:34.773Z,99.20
2022-11-25T12:33:11.543Z,98.20
2022-11-25T12:35:47.253Z,99.30
2022-11-25T12:38:24.373Z,99.50
2022-11-25T12:41:00.621Z,99.40
2022-11-25T12:43:36.989Z,99.30
2022-11-25T12:46:16.341Z,99.50
2022-11-25T12:48:44.813Z,99.40
2022-11-25T12:51:23.515Z,98.30
2022-11-25T12:54:02.071Z,96.70
2022-11-25T12:56:44.869Z,95.50
2022-11-25T12:59:36.533Z,94.80
2022-11-25T13:02:30.668Z,95.70
2022-11-25T13:08:22.597Z,95.50
2022-11-25T13:11:09.095Z,96.80
2022-11-25T13:13:51.112Z,96.70
2022-11-25T13:16:21.326Z,97.40
2022-11-25T13:18:51.502Z,98.30
2022-11-25T13:21:20.568Z,98.50
2022-11-25T13:23:52.095Z,97.80
2022-11-25T13:26:52.956Z,97.60
2022-11-25T13:30:01.024Z,98.50
2022-11-25T13:32:36.838Z,98.50
2022-11-25T13:35:32.350Z,98.70
2022-11-25T13:38:01.742Z,98.60
2022-11-25T13:40:38.071Z,99.00
2022-11-25T13:43:06.573Z,98.70
2022-11-25T13:45:36.159Z,98.30
2022-11-25T13:48:13.896Z,99.00
2022-11-25T13:51:09.508Z,99.10
2022-11-25T13:53:35.883Z,99.10
2022-11-25T13:56:16.234Z,99.00
2022-11-25T13:59:17.472Z,96.60
2022-11-25T14:01:55.218Z,97.80
2022-11-25T14:04:40.116Z,99.40
2022-11-25T14:07:21.415Z,96.90
2022-11-25T14:10:10.601Z,96.50
2022-11-25T14:12:58.723Z,95.60
2022-11-25T14:15:35.799Z,95.00
2022-11-25T14:18:53.491Z,96.30
2022-11-25T14:21:31.133Z,97.00
2022-11-25T14:24:12.323Z,98.10
2022-11-25T14:26:49.802Z,98.20
2022-11-25T14:29:22.904Z,99.00
2022-11-25T14:31:54.440Z,99.30
2022-11-25T14:34:25.341Z,98.30
2022-11-25T14:37:00.227Z,98.30
2022-11-25T14:39:34.172Z,98.70
2022-11-25T14:42:09.244Z,98.90
2022-11-25T14:44:45.973Z,99.30
2022-11-25T14:47:13.862Z,98.30
2022-11-25T14:49:55.349Z,98.70
2022-11-25T14:52:35.940Z,99.10
2022-11-25T14:55:06.350Z,97.70
2022-11-25T14:57:38.645Z,96.50
2022-11-25T15:00:08.980Z,99.60
2022-11-25T15:02:40.418Z,99.90
2022-11-25T15:05:19.253Z,98.70
2022-11-25T15:07:58.584Z,99.30
2022-11-25T15:10:45.798Z,99.20
2022-11-25T15:13:30.237Z,96.40
2022-11-25T15:16:05.618Z,99.90
2022-11-25T15:18:34.884Z,99.90
2022-11-25T15:21:03.935Z,96.40
2022-11-25T15:23:34.745Z,99.90
2022-11-25T15:26:03.251Z,99.90
2022-11-25T15:28:37.107Z,99.90
2022-11-25T15:31:10.630Z,99.90
2022-11-25T15:33:39.277Z,99.90
2022-11-25T15:36:07.678Z,99.90
2022-11-25T15:38:44.738Z,99.80
2022-11-25T15:41:36.802Z,99.90
2022-11-25T15:44:07.210Z,99.90
2022-11-25T15:46:37.068Z,99.60
2022-11-25T15:49:07.269Z,97.20
2022-11-25T15:51:41.524Z,97.00
2022-11-25T15:54:19.862Z,97.50
2022-11-25T15:56:50.131Z,97.70
2022-11-25T15:59:40.326Z,98.50
2022-11-25T16:02:31.072Z,98.60
2022-11-25T16:05:15.431Z,98.50
2022-11-25T16:08:02.032Z,98.70
2022-11-25T16:10:32.018Z,98.80
2022-11-25T16:13:31.678Z,99.00
2022-11-25T16:16:08.811Z,99.30
2022-11-25T16:18:41.422Z,98.00
2022-11-25T16:21:12.233Z,99.60
2022-11-25T16:23:43.906Z,99.90
2022-11-25T16:26:17.773Z,99.80
2022-11-25T16:28:53.592Z,99.80
2022-11-25T16:31:23.439Z,99.30
2022-11-25T16:33:53.821Z,97.70
2022-11-25T16:36:21.674Z,98.30
2022-11-25T16:38:54.283Z,99.90
2022-11-25T16:41:24.618Z,99.60
2022-11-25T16:43:52.833Z,99.40
2022-11-25T16:46:22.481Z,99.60
2022-11-25T16:48:52.213Z,99.90
2022-11-25T16:51:22.340Z,99.90
2022-11-25T16:53:50.906Z,99.90
2022-11-25T16:56:28.606Z,99.90
2022-11-25T16:58:56.504Z,99.90
2022-11-25T17:01:28.176Z,99.90
2022-11-25T17:03:56.076Z,99.60
2022-11-25T17:06:25.715Z,99.90
2022-11-25T17:08:54.009Z,99.90
2022-11-25T17:11:27.602Z,99.90
2022-11-25T17:13:56.872Z,99.90
2022-11-25T17:16:28.240Z,99.90
2022-11-25T17:18:58.800Z,99.90
2022-11-25T17:21:28.694Z,99.90
2022-11-25T17:24:01.034Z,99.90
2022-11-25T17:26:37.379Z,99.90
2022-11-25T17:29:07.953Z,99.90
2022-11-25T17:31:39.020Z,99.90
2022-11-25T17:34:07.090Z,99.90
2022-11-25T17:36:34.943Z,99.90
2022-11-25T17:39:02.792Z,99.90
2022-11-25T17:41:33.211Z,98.40
2022-11-25T17:44:04.791Z,98.80
2022-11-25T17:46:32.626Z,97.50
2022-11-25T17:49:01.815Z,98.50
2022-11-25T17:51:29.674Z,99.90
2022-11-25T17:53:57.515Z,99.90
2022-11-25T17:56:28.798Z,99.90
2022-11-25T17:58:58.322Z,99.90
2022-11-25T18:01:26.216Z,97.90
2022-11-25T18:03:54.092Z,97.30
2022-11-25T18:06:23.458Z,99.60
2022-11-25T18:08:51.324Z,98.90
2022-11-25T18:11:22.815Z,99.90
2022-11-25T18:13:51.568Z,98.40
2022-11-25T18:16:20.823Z,99.90
2022-11-25T18:18:48.746Z,99.90
2022-11-25T18:21:16.615Z,98.10
2022-11-25T18:23:45.809Z,99.90
2022-11-25T18:26:13.794Z,99.90
2022-11-25T18:28:41.721Z,98.50
2022-11-25T18:31:11.821Z,96.50
2022-11-25T18:33:39.786Z,98.50
2022-11-25T18:36:10.898Z,99.20
2022-11-25T18:38:38.736Z,99.90
2022-11-25T18:41:10.639Z,99.90
2022-11-25T18:43:38.624Z,99.90
2022-11-25T18:46:06.851Z,99.60
2022-11-25T18:48:34.686Z,99.90
2022-11-25T18:51:02.513Z,99.90
2022-11-25T18:53:30.384Z,99.90
2022-11-25T18:55:58.249Z,97.10
2022-11-25T18:58:28.534Z,98.60
2022-11-25T19:01:02.931Z,99.30
2022-11-25T19:03:30.856Z,99.90
2022-11-25T19:06:00.946Z,99.90
2022-11-25T19:08:29.570Z,99.90
2022-11-25T19:10:57.930Z,99.70
2022-11-25T19:13:31.584Z,99.90
2022-11-25T19:16:06.523Z,99.70
2022-11-25T19:18:34.447Z,97.20
2022-11-25T19:21:02.347Z,97.60
2022-11-25T19:23:30.456Z,98.70
2022-11-25T19:26:01.796Z,99.90
2022-11-25T19:28:31.846Z,99.90
2022-11-25T19:31:04.428Z,99.90
2022-11-25T19:33:34.482Z,99.90
2022-11-25T19:36:02.463Z,99.90
2022-11-25T19:38:31.001Z,99.90
2022-11-25T19:40:58.897Z,97.80
2022-11-25T19:43:28.008Z,98.70
2022-11-25T19:45:58.161Z,99.60
2022-11-25T19:48:29.390Z,99.90
2022-11-25T19:50:59.628Z,99.90
2022-11-25T19:53:33.404Z,99.90
2022-11-25T19:56:04.101Z,99.90
2022-11-25T19:58:32.468Z,99.90
2022-11-25T20:01:03.774Z,99.90
2022-11-25T20:03:32.441Z,99.90
2022-11-25T20:06:00.379Z,98.70
2022-11-25T20:08:29.514Z,99.60
2022-11-25T20:10:58.354Z,99.90
2022-11-25T20:13:26.399Z,98.40
2022-11-25T20:15:55.895Z,97.70
2022-11-25T20:18:27.083Z,97.20
2022-11-25T20:20:59.299Z,99.00
2022-11-25T20:23:30.003Z,99.90
2022-11-25T20:25:58.114Z,99.90
2022-11-25T20:28:27.936Z,99.90
2022-11-25T20:30:57.619Z,99.60
2022-11-25T20:33:27.397Z,99.60
2022-11-25T20:36:05.506Z,99.90
2022-11-25T20:38:34.498Z,99.90
2022-11-25T20:41:02.702Z,99.30
2022-11-25T20:43:32.424Z,98.60
2022-11-25T20:46:02.245Z,98.60
2022-11-25T20:48:31.709Z,98.40
2022-11-25T20:51:01.888Z,99.90
2022-11-25T20:53:32.266Z,99.90
2022-11-25T20:56:00.613Z,99.90
2022-11-25T20:58:30.015Z,99.70
2022-11-25T21:00:59.036Z,99.20
2022-11-25T21:03:27.110Z,99.00
2022-11-25T21:05:57.954Z,98.40
2022-11-25T21:08:30.043Z,99.90
2022-11-25T21:10:59.814Z,99.90
2022-11-25T21:13:29.516Z,99.90
2022-11-25T21:15:57.830Z,99.90
2022-11-25T21:18:26.410Z,99.90
2022-11-25T21:20:57.876Z,99.10
2022-11-25T21:23:28.955Z,99.90
2022-11-25T21:26:04.811Z,99.90
2022-11-25T21:28:33.304Z,99.90
2022-11-25T21:31:01.175Z,99.90
2022-11-25T21:33:28.997Z,99.90
2022-11-25T21:35:58.249Z,99.90
2022-11-25T21:38:28.073Z,99.90
2022-11-25T21:40:58.368Z,99.90
2022-11-25T21:43:29.277Z,99.90
2022-11-25T21:46:01.930Z,99.90
2022-11-25T21:48:31.004Z,99.20
2022-11-25T21:51:00.630Z,99.90
2022-11-25T21:53:31.938Z,99.90
2022-11-25T21:56:03.292Z,99.90
2022-11-25T21:58:32.119Z,99.60
2022-11-25T22:01:02.354Z,99.90
2022-11-25T22:03:32.633Z,99.90
2022-11-25T22:06:01.834Z,99.90
2022-11-25T22:08:29.686Z,99.90
2022-11-25T22:10:57.566Z,99.90
2022-11-25T22:13:38.172Z,98.40
2022-11-25T22:16:07.032Z,99.90
2022-11-25T22:18:37.073Z,99.90
2022-11-25T22:21:06.540Z,99.90
2022-11-25T22:23:34.417Z,99.90
2022-11-25T22:26:02.300Z,99.90
2022-11-25T22:28:31.467Z,99.90
2022-11-25T22:31:03.501Z,99.90
2022-11-25T22:33:33.633Z,99.90
2022-11-25T22:36:01.888Z,99.90
2022-11-25T22:38:31.698Z,99.90
2022-11-25T22:41:02.162Z,99.90
2022-11-25T22:43:32.713Z,99.90
2022-11-25T22:46:00.980Z,99.90
2022-11-25T22:48:32.164Z,99.90
2022-11-25T22:51:00.298Z,99.90
2022-11-25T22:53:30.103Z,99.90
2022-11-25T22:55:58.496Z,99.90
2022-11-25T22:58:27.655Z,99.90
2022-11-25T23:00:56.932Z,99.90
2022-11-25T23:03:29.082Z,99.90
2022-11-25T23:05:57.785Z,99.90
2022-11-25T23:08:28.222Z,99.90
2022-11-25T23:10:57.601Z,99.90
2022-11-25T23:13:25.717Z,99.90
2022-11-25T23:15:55.879Z,99.90
2022-11-25T23:18:28.617Z,99.90
2022-11-25T23:20:56.581Z,99.90
2022-11-25T23:23:27.547Z,99.90
2022-11-25T23:25:57.252Z,99.90
2022-11-25T23:28:25.913Z,99.90
2022-11-25T23:30:54.925Z,99.90
2022-11-25T23:33:29.891Z,99.90
2022-11-25T23:35:58.175Z,99.90
2022-11-25T23:38:28.595Z,99.90
2022-11-25T23:40:57.787Z,99.20
2022-11-25T23:43:25.610Z,98.70
2022-11-25T23:45:56.088Z,99.90
2022-11-25T23:48:26.867Z,99.90
2022-11-25T23:50:56.187Z,99.90
2022-11-25T23:53:27.085Z,99.90
2022-11-25T23:55:55.151Z,98.10
2022-11-25T23:58:24.595Z,98.70
